sensor_id;sensor_type;location;lat;lon;timestamp;temperature;humidity
3626;DHT22;1827;50.534;8.316;2023-02-24T00:01:18;7.10;89.60
3626;DHT22;1827;50.534;8.316;2023-02-24T00:03:59;7.10;91.90
3626;DHT22;1827;50.534;8.316;2023-02-24T00:06:26;7.10;94.50
3626;DHT22;1827;50.534;8.316;2023-02-24T00:09:11;7.00;99.90
3626;DHT22;1827;50.534;8.316;2023-02-24T00:11:45;7.00;99.90
3626;DHT22;1827;50.534;8.316;2023-02-24T00:14:14;7.00;99.90
3626;DHT22;1827;50.534;8.316;2023-02-24T00:16:42;7.10;99.90
3626;DHT22;1827;50.534;8.316;2023-02-24T00:19:13;7.00;99.90
3626;DHT22;1827;50.534;8.316;2023-02-24T00:21:40;6.90;99.90
3626;DHT22;1827;50.534;8.316;2023-02-24T00:24:06;6.90;99.90
3626;DHT22;1827;50.534;8.316;2023-02-24T00:26:32;6.80;99.90
3626;DHT22;1827;50.534;8.316;2023-02-24T00:28:58;6.80;99.90
3626;DHT22;1827;50.534;8.316;2023-02-24T00:31:25;6.80;99.90
3626;DHT22;1827;50.534;8.316;2023-02-24T00:33:55;6.70;99.90
3626;DHT22;1827;50.534;8.316;2023-02-24T00:36:22;6.70;99.90
3626;DHT22;1827;50.534;8.316;2023-02-24T00:38:52;6.60;99.90
3626;DHT22;1827;50.534;8.316;2023-02-24T00:41:21;6.60;99.90
3626;DHT22;1827;50.534;8.316;2023-02-24T00:43:48;6.60;99.90
3626;DHT22;1827;50.534;8.316;2023-02-24T00:46:17;6.50;99.90
3626;DHT22;1827;50.534;8.316;2023-02-24T00:48:43;6.50;99.90
3626;DHT22;1827;50.534;8.316;2023-02-24T00:51:16;6.50;99.90
3626;DHT22;1827;50.534;8.316;2023-02-24T00:53:43;6.50;99.90
3626;DHT22;1827;50.534;8.316;2023-02-24T00:56:10;6.40;99.90
3626;DHT22;1827;50.534;8.316;2023-02-24T00:58:40;6.30;99.90
3626;DHT22;1827;50.534;8.316;2023-02-24T01:01:15;6.30;99.90
3626;DHT22;1827;50.534;8.316;2023-02-24T01:03:42;6.20;99.90
3626;DHT22;1827;50.534;8.316;2023-02-24T01:06:07;6.10;99.90
3626;DHT22;1827;50.534;8.316;2023-02-24T01:08:33;6.10;99.90
3626;DHT22;1827;50.534;8.316;2023-02-24T01:11:01;6.00;99.90
3626;DHT22;1827;50.534;8.316;2023-02-24T01:13:45;5.90;99.90
3626;DHT22;1827;50.534;8.316;2023-02-24T01:16:11;5.70;99.90
3626;DHT22;1827;50.534;8.316;2023-02-24T01:18:41;5.60;99.90
3626;DHT22;1827;50.534;8.316;2023-02-24T01:21:09;5.60;99.90
3626;DHT22;1827;50.534;8.316;2023-02-24T01:23:37;5.50;99.90
3626;DHT22;1827;50.534;8.316;2023-02-24T01:26:02;5.40;99.90
3626;DHT22;1827;50.534;8.316;2023-02-24T01:28:28;5.30;99.90
3626;DHT22;1827;50.534;8.316;2023-02-24T01:30:59;5.30;99.90
3626;DHT22;1827;50.534;8.316;2023-02-24T01:33:26;5.30;99.90
3626;DHT22;1827;50.534;8.316;2023-02-24T01:35:51;5.40;99.90
3626;DHT22;1827;50.534;8.316;2023-02-24T01:38:19;5.40;99.90
3626;DHT22;1827;50.534;8.316;2023-02-24T01:40:59;5.50;99.90
3626;DHT22;1827;50.534;8.316;2023-02-24T01:43:25;5.50;1.00
3626;DHT22;1827;50.534;8.316;2023-02-24T01:45:52;5.60;1.00
3626;DHT22;1827;50.534;8.316;2023-02-24T01:48:18;5.60;1.00
3626;DHT22;1827;50.534;8.316;2023-02-24T01:50:44;5.60;1.00
3626;DHT22;1827;50.534;8.316;2023-02-24T01:53:10;5.60;99.90
3626;DHT22;1827;50.534;8.316;2023-02-24T01:55:40;5.60;99.90
3626;DHT22;1827;50.534;8.316;2023-02-24T01:58:12;5.60;99.90
3626;DHT22;1827;50.534;8.316;2023-02-24T02:00:40;5.60;99.90
3626;DHT22;1827;50.534;8.316;2023-02-24T02:03:28;5.50;99.90
3626;DHT22;1827;50.534;8.316;2023-02-24T02:05:58;5.40;99.90
3626;DHT22;1827;50.534;8.316;2023-02-24T02:08:25;5.30;99.90
3626;DHT22;1827;50.534;8.316;2023-02-24T02:10:52;5.20;99.90
3626;DHT22;1827;50.534;8.316;2023-02-24T02:13:24;5.20;1.00
3626;DHT22;1827;50.534;8.316;2023-02-24T02:15:55;5.10;1.00
3626;DHT22;1827;50.534;8.316;2023-02-24T02:18:28;5.00;1.00
3626;DHT22;1827;50.534;8.316;2023-02-24T02:28:40;4.70;1.00
3626;DHT22;1827;50.534;8.316;2023-02-24T02:44:54;4.80;1.00
3626;DHT22;1827;50.534;8.316;2023-02-24T02:47:27;4.80;1.00
3626;DHT22;1827;50.534;8.316;2023-02-24T02:50:00;4.80;1.00
3626;DHT22;1827;50.534;8.316;2023-02-24T02:52:39;4.80;1.00
3626;DHT22;1827;50.534;8.316;2023-02-24T02:57:55;4.90;1.00
3626;DHT22;1827;50.534;8.316;2023-02-24T03:00:24;5.00;1.00
3626;DHT22;1827;50.534;8.316;2023-02-24T03:02:54;4.90;1.00
3626;DHT22;1827;50.534;8.316;2023-02-24T03:05:23;4.90;1.00
3626;DHT22;1827;50.534;8.316;2023-02-24T03:07:54;4.80;1.00
3626;DHT22;1827;50.534;8.316;2023-02-24T03:10:23;4.80;1.00
3626;DHT22;1827;50.534;8.316;2023-02-24T03:12:52;4.80;1.00
3626;DHT22;1827;50.534;8.316;2023-02-24T03:15:19;4.70;1.00
3626;DHT22;1827;50.534;8.316;2023-02-24T03:17:46;4.80;1.00
3626;DHT22;1827;50.534;8.316;2023-02-24T03:20:14;4.80;1.00
3626;DHT22;1827;50.534;8.316;2023-02-24T03:22:45;4.70;1.00
3626;DHT22;1827;50.534;8.316;2023-02-24T03:25:14;4.70;1.00
3626;DHT22;1827;50.534;8.316;2023-02-24T03:27:46;4.70;1.00
3626;DHT22;1827;50.534;8.316;2023-02-24T03:30:15;4.70;1.00
3626;DHT22;1827;50.534;8.316;2023-02-24T03:32:53;4.60;1.00
3626;DHT22;1827;50.534;8.316;2023-02-24T03:35:25;4.70;1.00
3626;DHT22;1827;50.534;8.316;2023-02-24T03:37:54;4.60;1.00
3626;DHT22;1827;50.534;8.316;2023-02-24T03:40:22;4.60;1.00
3626;DHT22;1827;50.534;8.316;2023-02-24T03:42:59;4.50;1.00
3626;DHT22;1827;50.534;8.316;2023-02-24T03:45:30;4.60;1.00
3626;DHT22;1827;50.534;8.316;2023-02-24T03:47:56;4.60;1.00
3626;DHT22;1827;50.534;8.316;2023-02-24T03:50:24;4.50;1.00
3626;DHT22;1827;50.534;8.316;2023-02-24T03:52:59;4.50;1.00
3626;DHT22;1827;50.534;8.316;2023-02-24T04:00:26;4.50;1.00
3626;DHT22;1827;50.534;8.316;2023-02-24T04:03:08;4.50;1.00
3626;DHT22;1827;50.534;8.316;2023-02-24T04:05:39;4.50;1.00
3626;DHT22;1827;50.534;8.316;2023-02-24T04:08:12;4.50;1.00
3626;DHT22;1827;50.534;8.316;2023-02-24T04:10:47;4.50;1.00
3626;DHT22;1827;50.534;8.316;2023-02-24T04:16:16;4.50;1.00
3626;DHT22;1827;50.534;8.316;2023-02-24T04:18:52;4.50;1.00
3626;DHT22;1827;50.534;8.316;2023-02-24T04:21:19;4.50;1.00
3626;DHT22;1827;50.534;8.316;2023-02-24T04:23:48;4.50;1.00
3626;DHT22;1827;50.534;8.316;2023-02-24T04:26:15;4.60;1.00
3626;DHT22;1827;50.534;8.316;2023-02-24T04:28:41;4.60;1.00
3626;DHT22;1827;50.534;8.316;2023-02-24T04:31:08;4.70;1.00
3626;DHT22;1827;50.534;8.316;2023-02-24T04:33:41;4.80;1.00
3626;DHT22;1827;50.534;8.316;2023-02-24T04:36:09;4.80;1.00
3626;DHT22;1827;50.534;8.316;2023-02-24T04:38:38;4.80;1.00
3626;DHT22;1827;50.534;8.316;2023-02-24T04:41:03;4.80;1.00
3626;DHT22;1827;50.534;8.316;2023-02-24T04:43:29;4.90;1.00
3626;DHT22;1827;50.534;8.316;2023-02-24T04:45:55;4.90;1.00
3626;DHT22;1827;50.534;8.316;2023-02-24T04:48:21;4.80;1.00
3626;DHT22;1827;50.534;8.316;2023-02-24T04:50:46;4.80;1.00
3626;DHT22;1827;50.534;8.316;2023-02-24T04:53:19;4.70;1.00
3626;DHT22;1827;50.534;8.316;2023-02-24T04:55:51;4.70;1.00
3626;DHT22;1827;50.534;8.316;2023-02-24T04:58:20;4.70;1.00
3626;DHT22;1827;50.534;8.316;2023-02-24T05:00:47;4.60;1.00
3626;DHT22;1827;50.534;8.316;2023-02-24T05:03:13;4.70;1.00
3626;DHT22;1827;50.534;8.316;2023-02-24T05:05:46;4.90;1.00
3626;DHT22;1827;50.534;8.316;2023-02-24T05:08:16;4.90;1.00
3626;DHT22;1827;50.534;8.316;2023-02-24T05:10:42;5.00;1.00
3626;DHT22;1827;50.534;8.316;2023-02-24T05:13:15;5.00;1.00
3626;DHT22;1827;50.534;8.316;2023-02-24T05:15:42;5.00;1.00
3626;DHT22;1827;50.534;8.316;2023-02-24T05:18:09;5.00;1.00
3626;DHT22;1827;50.534;8.316;2023-02-24T05:20:39;5.10;1.00
3626;DHT22;1827;50.534;8.316;2023-02-24T05:23:30;5.10;1.00
3626;DHT22;1827;50.534;8.316;2023-02-24T05:25:58;5.20;1.00
3626;DHT22;1827;50.534;8.316;2023-02-24T05:28:24;5.20;1.00
3626;DHT22;1827;50.534;8.316;2023-02-24T05:30:50;5.10;1.00
3626;DHT22;1827;50.534;8.316;2023-02-24T05:33:16;5.20;1.00
3626;DHT22;1827;50.534;8.316;2023-02-24T05:35:49;5.20;1.00
3626;DHT22;1827;50.534;8.316;2023-02-24T05:38:17;5.10;1.00
3626;DHT22;1827;50.534;8.316;2023-02-24T05:40:45;5.20;1.00
3626;DHT22;1827;50.534;8.316;2023-02-24T05:43:12;5.10;1.00
3626;DHT22;1827;50.534;8.316;2023-02-24T05:45:44;5.00;1.00
3626;DHT22;1827;50.534;8.316;2023-02-24T05:48:10;5.00;1.00
3626;DHT22;1827;50.534;8.316;2023-02-24T05:50:40;5.00;1.00
3626;DHT22;1827;50.534;8.316;2023-02-24T05:53:06;4.90;1.00
3626;DHT22;1827;50.534;8.316;2023-02-24T05:55:34;5.00;1.00
3626;DHT22;1827;50.534;8.316;2023-02-24T05:58:00;5.10;1.00
3626;DHT22;1827;50.534;8.316;2023-02-24T06:00:30;5.20;1.00
3626;DHT22;1827;50.534;8.316;2023-02-24T06:02:56;5.10;1.00
3626;DHT22;1827;50.534;8.316;2023-02-24T06:05:33;5.10;1.00
3626;DHT22;1827;50.534;8.316;2023-02-24T06:07:58;5.00;1.00
3626;DHT22;1827;50.534;8.316;2023-02-24T06:10:33;5.00;1.00
3626;DHT22;1827;50.534;8.316;2023-02-24T06:13:00;5.00;28.70
3626;DHT22;1827;50.534;8.316;2023-02-24T06:15:32;5.00;38.30
3626;DHT22;1827;50.534;8.316;2023-02-24T06:18:01;5.00;99.90
3626;DHT22;1827;50.534;8.316;2023-02-24T06:20:28;5.10;99.90
3626;DHT22;1827;50.534;8.316;2023-02-24T06:22:54;5.00;98.00
3626;DHT22;1827;50.534;8.316;2023-02-24T06:25:22;4.90;99.90
3626;DHT22;1827;50.534;8.316;2023-02-24T06:27:50;4.90;99.90
3626;DHT22;1827;50.534;8.316;2023-02-24T06:30:17;4.90;99.90
3626;DHT22;1827;50.534;8.316;2023-02-24T06:32:43;5.00;99.90
3626;DHT22;1827;50.534;8.316;2023-02-24T06:35:09;5.00;99.90
3626;DHT22;1827;50.534;8.316;2023-02-24T06:37:37;5.00;99.90
3626;DHT22;1827;50.534;8.316;2023-02-24T06:40:04;5.10;99.90
3626;DHT22;1827;50.534;8.316;2023-02-24T06:42:49;5.20;99.90
3626;DHT22;1827;50.534;8.316;2023-02-24T06:45:18;5.20;99.90
3626;DHT22;1827;50.534;8.316;2023-02-24T06:47:44;5.30;99.90
3626;DHT22;1827;50.534;8.316;2023-02-24T06:50:16;5.20;99.90
3626;DHT22;1827;50.534;8.316;2023-02-24T06:52:48;5.30;99.90
3626;DHT22;1827;50.534;8.316;2023-02-24T06:55:14;5.30;99.90
3626;DHT22;1827;50.534;8.316;2023-02-24T06:57:53;5.40;99.90
3626;DHT22;1827;50.534;8.316;2023-02-24T07:00:27;5.40;99.90
3626;DHT22;1827;50.534;8.316;2023-02-24T07:03:06;5.40;99.90
3626;DHT22;1827;50.534;8.316;2023-02-24T07:05:49;5.30;99.90
3626;DHT22;1827;50.534;8.316;2023-02-24T07:08:18;5.40;99.90
3626;DHT22;1827;50.534;8.316;2023-02-24T07:10:50;5.40;95.10
3626;DHT22;1827;50.534;8.316;2023-02-24T07:13:16;5.40;73.70
3626;DHT22;1827;50.534;8.316;2023-02-24T07:15:42;5.50;60.90
3626;DHT22;1827;50.534;8.316;2023-02-24T07:18:14;5.60;1.00
3626;DHT22;1827;50.534;8.316;2023-02-24T07:20:39;5.60;1.00
3626;DHT22;1827;50.534;8.316;2023-02-24T07:23:08;5.60;1.00
3626;DHT22;1827;50.534;8.316;2023-02-24T07:25:34;5.70;1.00
3626;DHT22;1827;50.534;8.316;2023-02-24T07:27:59;5.70;1.00
3626;DHT22;1827;50.534;8.316;2023-02-24T07:30:27;5.70;1.00
3626;DHT22;1827;50.534;8.316;2023-02-24T07:32:52;5.80;1.00
3626;DHT22;1827;50.534;8.316;2023-02-24T07:35:20;5.90;1.00
3626;DHT22;1827;50.534;8.316;2023-02-24T07:37:46;6.00;1.00
3626;DHT22;1827;50.534;8.316;2023-02-24T07:40:13;6.00;1.00
3626;DHT22;1827;50.534;8.316;2023-02-24T07:42:42;6.10;1.00
3626;DHT22;1827;50.534;8.316;2023-02-24T07:45:08;6.10;1.00
3626;DHT22;1827;50.534;8.316;2023-02-24T07:47:34;6.10;1.00
3626;DHT22;1827;50.534;8.316;2023-02-24T07:50:00;6.10;99.90
3626;DHT22;1827;50.534;8.316;2023-02-24T07:52:27;6.10;99.90
3626;DHT22;1827;50.534;8.316;2023-02-24T07:54:56;6.00;99.90
3626;DHT22;1827;50.534;8.316;2023-02-24T07:57:23;6.10;99.90
3626;DHT22;1827;50.534;8.316;2023-02-24T07:59:49;6.00;99.90
3626;DHT22;1827;50.534;8.316;2023-02-24T08:02:15;6.10;99.90
3626;DHT22;1827;50.534;8.316;2023-02-24T08:04:41;6.10;99.90
3626;DHT22;1827;50.534;8.316;2023-02-24T08:07:14;6.10;99.90
3626;DHT22;1827;50.534;8.316;2023-02-24T08:09:40;6.10;99.90
3626;DHT22;1827;50.534;8.316;2023-02-24T08:12:31;6.10;99.90
3626;DHT22;1827;50.534;8.316;2023-02-24T08:14:59;6.20;99.90
3626;DHT22;1827;50.534;8.316;2023-02-24T08:17:33;6.30;99.90
3626;DHT22;1827;50.534;8.316;2023-02-24T08:19:59;6.30;99.90
3626;DHT22;1827;50.534;8.316;2023-02-24T08:22:43;6.50;99.90
3626;DHT22;1827;50.534;8.316;2023-02-24T08:25:11;6.80;99.90
3626;DHT22;1827;50.534;8.316;2023-02-24T08:27:49;7.30;86.10
3626;DHT22;1827;50.534;8.316;2023-02-24T08:30:24;7.50;16.50
3626;DHT22;1827;50.534;8.316;2023-02-24T08:32:54;7.60;1.00
3626;DHT22;1827;50.534;8.316;2023-02-24T08:37:53;7.60;1.00
3626;DHT22;1827;50.534;8.316;2023-02-24T08:40:20;7.80;1.00
3626;DHT22;1827;50.534;8.316;2023-02-24T08:43:03;7.90;1.00
3626;DHT22;1827;50.534;8.316;2023-02-24T08:45:41;7.70;1.00
3626;DHT22;1827;50.534;8.316;2023-02-24T08:48:09;7.70;1.00
3626;DHT22;1827;50.534;8.316;2023-02-24T08:50:44;7.60;1.00
3626;DHT22;1827;50.534;8.316;2023-02-24T08:53:13;7.60;1.00
3626;DHT22;1827;50.534;8.316;2023-02-24T08:55:45;7.80;1.00
3626;DHT22;1827;50.534;8.316;2023-02-24T08:58:10;8.20;1.00
3626;DHT22;1827;50.534;8.316;2023-02-24T09:00:45;8.60;1.00
3626;DHT22;1827;50.534;8.316;2023-02-24T09:03:17;8.70;1.00
3626;DHT22;1827;50.534;8.316;2023-02-24T09:06:02;8.90;1.00
3626;DHT22;1827;50.534;8.316;2023-02-24T09:08:30;8.90;1.00
3626;DHT22;1827;50.534;8.316;2023-02-24T09:10:59;9.00;1.00
3626;DHT22;1827;50.534;8.316;2023-02-24T09:13:25;8.90;1.00
3626;DHT22;1827;50.534;8.316;2023-02-24T09:15:58;8.40;1.00
3626;DHT22;1827;50.534;8.316;2023-02-24T09:18:24;8.50;1.00
3626;DHT22;1827;50.534;8.316;2023-02-24T09:20:57;8.30;1.00
3626;DHT22;1827;50.534;8.316;2023-02-24T09:23:42;8.30;1.00
3626;DHT22;1827;50.534;8.316;2023-02-24T09:26:10;8.20;1.00
3626;DHT22;1827;50.534;8.316;2023-02-24T09:28:38;8.20;1.00
3626;DHT22;1827;50.534;8.316;2023-02-24T09:31:13;8.20;1.00
3626;DHT22;1827;50.534;8.316;2023-02-24T09:33:41;8.20;1.00
3626;DHT22;1827;50.534;8.316;2023-02-24T09:36:08;8.10;1.00
3626;DHT22;1827;50.534;8.316;2023-02-24T09:41:23;8.20;1.00
3626;DHT22;1827;50.534;8.316;2023-02-24T09:44:00;8.30;1.00
3626;DHT22;1827;50.534;8.316;2023-02-24T09:46:33;8.80;1.00
3626;DHT22;1827;50.534;8.316;2023-02-24T09:49:02;8.70;1.00
3626;DHT22;1827;50.534;8.316;2023-02-24T09:51:30;8.80;1.00
3626;DHT22;1827;50.534;8.316;2023-02-24T09:54:17;8.60;1.00
3626;DHT22;1827;50.534;8.316;2023-02-24T09:56:50;8.40;1.00
3626;DHT22;1827;50.534;8.316;2023-02-24T09:59:29;8.10;1.00
3626;DHT22;1827;50.534;8.316;2023-02-24T10:02:08;8.20;1.00
3626;DHT22;1827;50.534;8.316;2023-02-24T10:04:44;8.30;1.00
3626;DHT22;1827;50.534;8.316;2023-02-24T10:09:40;8.20;1.00
3626;DHT22;1827;50.534;8.316;2023-02-24T10:12:11;8.30;1.00
3626;DHT22;1827;50.534;8.316;2023-02-24T10:17:22;8.20;1.00
3626;DHT22;1827;50.534;8.316;2023-02-24T10:20:07;8.20;1.00
3626;DHT22;1827;50.534;8.316;2023-02-24T10:22:56;8.20;1.00
3626;DHT22;1827;50.534;8.316;2023-02-24T10:27:51;8.30;1.00
3626;DHT22;1827;50.534;8.316;2023-02-24T10:35:38;8.80;1.00
3626;DHT22;1827;50.534;8.316;2023-02-24T10:38:03;8.40;1.00
3626;DHT22;1827;50.534;8.316;2023-02-24T10:40:42;8.30;1.00
3626;DHT22;1827;50.534;8.316;2023-02-24T10:43:09;8.10;1.00
3626;DHT22;1827;50.534;8.316;2023-02-24T10:45:39;8.10;1.00
3626;DHT22;1827;50.534;8.316;2023-02-24T10:48:14;7.80;1.00
3626;DHT22;1827;50.534;8.316;2023-02-24T10:50:41;7.80;1.00
3626;DHT22;1827;50.534;8.316;2023-02-24T10:53:13;7.70;1.00
3626;DHT22;1827;50.534;8.316;2023-02-24T10:55:58;7.40;1.00
3626;DHT22;1827;50.534;8.316;2023-02-24T10:58:44;7.30;1.00
3626;DHT22;1827;50.534;8.316;2023-02-24T11:01:14;7.10;1.00
3626;DHT22;1827;50.534;8.316;2023-02-24T11:04:04;7.10;1.00
3626;DHT22;1827;50.534;8.316;2023-02-24T11:07:15;7.00;1.00
3626;DHT22;1827;50.534;8.316;2023-02-24T11:10:02;7.00;1.00
3626;DHT22;1827;50.534;8.316;2023-02-24T11:12:37;7.00;1.00
3626;DHT22;1827;50.534;8.316;2023-02-24T11:15:31;6.80;1.00
3626;DHT22;1827;50.534;8.316;2023-02-24T11:18:18;6.90;1.00
3626;DHT22;1827;50.534;8.316;2023-02-24T11:23:23;6.80;1.00
3626;DHT22;1827;50.534;8.316;2023-02-24T11:25:59;6.80;1.00
3626;DHT22;1827;50.534;8.316;2023-02-24T11:36:11;7.20;1.00
3626;DHT22;1827;50.534;8.316;2023-02-24T11:38:47;7.30;1.00
3626;DHT22;1827;50.534;8.316;2023-02-24T11:44:03;7.20;1.00
3626;DHT22;1827;50.534;8.316;2023-02-24T11:46:40;7.20;1.00
3626;DHT22;1827;50.534;8.316;2023-02-24T11:49:24;7.30;1.00
3626;DHT22;1827;50.534;8.316;2023-02-24T11:51:53;7.40;1.00
3626;DHT22;1827;50.534;8.316;2023-02-24T11:54:23;7.50;1.00
3626;DHT22;1827;50.534;8.316;2023-02-24T11:56:52;7.50;1.00
3626;DHT22;1827;50.534;8.316;2023-02-24T12:04:56;7.70;1.00
3626;DHT22;1827;50.534;8.316;2023-02-24T12:07:34;7.80;1.00
3626;DHT22;1827;50.534;8.316;2023-02-24T12:10:06;7.80;1.00
3626;DHT22;1827;50.534;8.316;2023-02-24T12:15:12;7.80;1.00
3626;DHT22;1827;50.534;8.316;2023-02-24T12:17:41;7.70;1.00
3626;DHT22;1827;50.534;8.316;2023-02-24T12:22:44;7.50;1.00
3626;DHT22;1827;50.534;8.316;2023-02-24T12:25:13;7.50;1.00
3626;DHT22;1827;50.534;8.316;2023-02-24T12:40:56;7.70;99.90
3626;DHT22;1827;50.534;8.316;2023-02-24T12:43:31;7.70;99.90
3626;DHT22;1827;50.534;8.316;2023-02-24T12:46:02;7.50;99.90
3626;DHT22;1827;50.534;8.316;2023-02-24T12:48:54;7.40;99.90
3626;DHT22;1827;50.534;8.316;2023-02-24T12:51:30;7.40;99.90
3626;DHT22;1827;50.534;8.316;2023-02-24T12:54:06;7.40;99.90
3626;DHT22;1827;50.534;8.316;2023-02-24T12:59:21;7.30;99.90
3626;DHT22;1827;50.534;8.316;2023-02-24T13:02:00;7.20;99.90
3626;DHT22;1827;50.534;8.316;2023-02-24T13:09:26;7.00;99.90
3626;DHT22;1827;50.534;8.316;2023-02-24T13:14:38;7.00;99.90
3626;DHT22;1827;50.534;8.316;2023-02-24T13:19:39;6.90;99.90
3626;DHT22;1827;50.534;8.316;2023-02-24T13:24:43;6.80;99.90
3626;DHT22;1827;50.534;8.316;2023-02-24T13:27:24;6.80;99.90
3626;DHT22;1827;50.534;8.316;2023-02-24T13:29:58;6.70;99.90
3626;DHT22;1827;50.534;8.316;2023-02-24T13:33:02;6.70;99.90
3626;DHT22;1827;50.534;8.316;2023-02-24T13:37:49;6.70;99.90
3626;DHT22;1827;50.534;8.316;2023-02-24T13:42:54;6.60;99.90
3626;DHT22;1827;50.534;8.316;2023-02-24T13:45:23;6.70;99.90
3626;DHT22;1827;50.534;8.316;2023-02-24T13:50:39;6.60;99.90
3626;DHT22;1827;50.534;8.316;2023-02-24T13:56:48;6.60;99.90
3626;DHT22;1827;50.534;8.316;2023-02-24T13:58:44;6.60;99.90
3626;DHT22;1827;50.534;8.316;2023-02-24T14:01:16;6.60;99.90
3626;DHT22;1827;50.534;8.316;2023-02-24T14:06:26;6.40;99.90
3626;DHT22;1827;50.534;8.316;2023-02-24T14:08:53;6.30;99.90
3626;DHT22;1827;50.534;8.316;2023-02-24T14:11:23;6.30;99.90
3626;DHT22;1827;50.534;8.316;2023-02-24T14:13:52;6.20;99.90
3626;DHT22;1827;50.534;8.316;2023-02-24T14:16:22;6.10;99.90
3626;DHT22;1827;50.534;8.316;2023-02-24T14:18:53;6.00;99.90
3626;DHT22;1827;50.534;8.316;2023-02-24T14:21:21;5.80;99.90
3626;DHT22;1827;50.534;8.316;2023-02-24T14:26:21;5.60;99.90
3626;DHT22;1827;50.534;8.316;2023-02-24T14:28:54;5.60;99.90
3626;DHT22;1827;50.534;8.316;2023-02-24T14:31:24;5.40;99.90
3626;DHT22;1827;50.534;8.316;2023-02-24T14:33:58;5.30;99.90
3626;DHT22;1827;50.534;8.316;2023-02-24T14:36:36;5.20;99.90
3626;DHT22;1827;50.534;8.316;2023-02-24T14:39:12;5.20;99.90
3626;DHT22;1827;50.534;8.316;2023-02-24T14:41:42;5.10;99.90
3626;DHT22;1827;50.534;8.316;2023-02-24T14:44:18;5.00;1.00
3626;DHT22;1827;50.534;8.316;2023-02-24T14:46:51;4.90;1.00
3626;DHT22;1827;50.534;8.316;2023-02-24T14:49:20;4.90;1.00
3626;DHT22;1827;50.534;8.316;2023-02-24T14:51:49;4.90;1.00
3626;DHT22;1827;50.534;8.316;2023-02-24T14:54:23;4.90;1.00
3626;DHT22;1827;50.534;8.316;2023-02-24T14:56:53;4.80;1.00
3626;DHT22;1827;50.534;8.316;2023-02-24T14:59:22;4.80;1.00
3626;DHT22;1827;50.534;8.316;2023-02-24T15:01:53;4.70;1.00
3626;DHT22;1827;50.534;8.316;2023-02-24T15:04:33;4.60;1.00
3626;DHT22;1827;50.534;8.316;2023-02-24T15:07:03;4.70;1.00
3626;DHT22;1827;50.534;8.316;2023-02-24T15:09:32;4.70;1.00
3626;DHT22;1827;50.534;8.316;2023-02-24T15:11:58;4.80;1.00
3626;DHT22;1827;50.534;8.316;2023-02-24T15:14:32;4.70;1.00
3626;DHT22;1827;50.534;8.316;2023-02-24T15:16:58;4.60;1.00
3626;DHT22;1827;50.534;8.316;2023-02-24T15:19:29;4.60;1.00
3626;DHT22;1827;50.534;8.316;2023-02-24T15:21:55;4.60;1.00
3626;DHT22;1827;50.534;8.316;2023-02-24T15:26:56;4.50;1.00
3626;DHT22;1827;50.534;8.316;2023-02-24T15:29:23;4.30;1.00
3626;DHT22;1827;50.534;8.316;2023-02-24T15:31:51;4.30;1.00
3626;DHT22;1827;50.534;8.316;2023-02-24T15:34:19;4.30;1.00
3626;DHT22;1827;50.534;8.316;2023-02-24T15:36:45;4.20;1.00
3626;DHT22;1827;50.534;8.316;2023-02-24T15:39:18;4.20;1.00
3626;DHT22;1827;50.534;8.316;2023-02-24T15:41:47;4.10;1.00
3626;DHT22;1827;50.534;8.316;2023-02-24T15:44:26;4.10;1.00
3626;DHT22;1827;50.534;8.316;2023-02-24T15:46:52;4.00;1.00
3626;DHT22;1827;50.534;8.316;2023-02-24T15:49:18;4.00;1.00
3626;DHT22;1827;50.534;8.316;2023-02-24T15:51:45;4.00;1.00
3626;DHT22;1827;50.534;8.316;2023-02-24T15:54:18;4.00;1.00
3626;DHT22;1827;50.534;8.316;2023-02-24T15:56:45;4.00;1.00
3626;DHT22;1827;50.534;8.316;2023-02-24T15:59:16;3.90;1.00
3626;DHT22;1827;50.534;8.316;2023-02-24T16:01:41;4.00;1.00
3626;DHT22;1827;50.534;8.316;2023-02-24T16:04:07;3.90;1.00
3626;DHT22;1827;50.534;8.316;2023-02-24T16:06:34;3.90;1.00
3626;DHT22;1827;50.534;8.316;2023-02-24T16:09:14;3.80;1.00
3626;DHT22;1827;50.534;8.316;2023-02-24T16:11:40;3.80;1.00
3626;DHT22;1827;50.534;8.316;2023-02-24T16:14:07;3.80;1.00
3626;DHT22;1827;50.534;8.316;2023-02-24T16:16:34;3.80;1.00
3626;DHT22;1827;50.534;8.316;2023-02-24T16:18:59;3.80;1.00
3626;DHT22;1827;50.534;8.316;2023-02-24T16:21:25;3.80;1.00
3626;DHT22;1827;50.534;8.316;2023-02-24T16:23:51;3.70;1.00
3626;DHT22;1827;50.534;8.316;2023-02-24T16:26:17;3.70;1.00
3626;DHT22;1827;50.534;8.316;2023-02-24T16:28:45;3.80;1.00
3626;DHT22;1827;50.534;8.316;2023-02-24T16:31:12;3.80;1.00
3626;DHT22;1827;50.534;8.316;2023-02-24T16:33:38;3.80;1.00
3626;DHT22;1827;50.534;8.316;2023-02-24T16:36:08;3.80;1.00
3626;DHT22;1827;50.534;8.316;2023-02-24T16:38:35;3.80;1.00
3626;DHT22;1827;50.534;8.316;2023-02-24T16:41:01;3.80;11.40
3626;DHT22;1827;50.534;8.316;2023-02-24T16:43:29;3.80;32.60
3626;DHT22;1827;50.534;8.316;2023-02-24T16:46:02;3.80;47.00
3626;DHT22;1827;50.534;8.316;2023-02-24T16:48:31;3.80;59.00
3626;DHT22;1827;50.534;8.316;2023-02-24T16:51:03;3.90;74.90
3626;DHT22;1827;50.534;8.316;2023-02-24T16:53:31;3.80;75.20
3626;DHT22;1827;50.534;8.316;2023-02-24T16:55:56;3.80;95.90
3626;DHT22;1827;50.534;8.316;2023-02-24T16:58:22;3.80;91.60
3626;DHT22;1827;50.534;8.316;2023-02-24T17:00:50;3.80;99.90
3626;DHT22;1827;50.534;8.316;2023-02-24T17:03:18;3.80;99.90
3626;DHT22;1827;50.534;8.316;2023-02-24T17:05:46;3.80;99.90
3626;DHT22;1827;50.534;8.316;2023-02-24T17:08:12;3.70;99.90
3626;DHT22;1827;50.534;8.316;2023-02-24T17:10:38;3.80;99.90
3626;DHT22;1827;50.534;8.316;2023-02-24T17:13:10;3.70;99.90
3626;DHT22;1827;50.534;8.316;2023-02-24T17:15:37;3.70;99.90
3626;DHT22;1827;50.534;8.316;2023-02-24T17:18:03;3.70;99.90
3626;DHT22;1827;50.534;8.316;2023-02-24T17:20:33;3.60;99.90
3626;DHT22;1827;50.534;8.316;2023-02-24T17:22:59;3.60;99.90
3626;DHT22;1827;50.534;8.316;2023-02-24T17:25:26;3.60;99.90
3626;DHT22;1827;50.534;8.316;2023-02-24T17:27:53;3.70;99.90
3626;DHT22;1827;50.534;8.316;2023-02-24T17:30:21;3.60;99.90
3626;DHT22;1827;50.534;8.316;2023-02-24T17:32:47;3.60;99.90
3626;DHT22;1827;50.534;8.316;2023-02-24T17:35:13;3.60;99.90
3626;DHT22;1827;50.534;8.316;2023-02-24T17:37:39;3.60;99.90
3626;DHT22;1827;50.534;8.316;2023-02-24T17:40:06;3.60;99.90
3626;DHT22;1827;50.534;8.316;2023-02-24T17:42:34;3.70;99.90
3626;DHT22;1827;50.534;8.316;2023-02-24T17:45:03;3.70;99.90
3626;DHT22;1827;50.534;8.316;2023-02-24T17:47:31;3.70;99.90
3626;DHT22;1827;50.534;8.316;2023-02-24T17:49:59;3.70;99.90
3626;DHT22;1827;50.534;8.316;2023-02-24T17:52:27;3.70;99.90
3626;DHT22;1827;50.534;8.316;2023-02-24T17:54:56;3.60;99.90
3626;DHT22;1827;50.534;8.316;2023-02-24T17:57:23;3.60;99.90
3626;DHT22;1827;50.534;8.316;2023-02-24T17:59:51;3.60;99.90
3626;DHT22;1827;50.534;8.316;2023-02-24T18:02:18;3.60;99.90
3626;DHT22;1827;50.534;8.316;2023-02-24T18:04:44;3.60;99.90
3626;DHT22;1827;50.534;8.316;2023-02-24T18:07:11;3.60;99.90
3626;DHT22;1827;50.534;8.316;2023-02-24T18:09:40;3.70;99.90
3626;DHT22;1827;50.534;8.316;2023-02-24T18:12:06;3.70;99.90
3626;DHT22;1827;50.534;8.316;2023-02-24T18:14:33;3.70;99.90
3626;DHT22;1827;50.534;8.316;2023-02-24T18:17:01;3.80;99.90
3626;DHT22;1827;50.534;8.316;2023-02-24T18:19:28;3.70;99.90
3626;DHT22;1827;50.534;8.316;2023-02-24T18:21:54;3.70;99.90
3626;DHT22;1827;50.534;8.316;2023-02-24T18:24:22;3.80;99.90
3626;DHT22;1827;50.534;8.316;2023-02-24T18:26:48;3.80;99.90
3626;DHT22;1827;50.534;8.316;2023-02-24T18:29:14;3.80;99.90
3626;DHT22;1827;50.534;8.316;2023-02-24T18:31:40;3.80;99.90
3626;DHT22;1827;50.534;8.316;2023-02-24T18:34:06;3.80;99.90
3626;DHT22;1827;50.534;8.316;2023-02-24T18:36:33;3.70;99.90
3626;DHT22;1827;50.534;8.316;2023-02-24T18:39:00;3.80;99.90
3626;DHT22;1827;50.534;8.316;2023-02-24T18:41:26;3.80;99.90
3626;DHT22;1827;50.534;8.316;2023-02-24T18:43:53;3.70;99.90
3626;DHT22;1827;50.534;8.316;2023-02-24T18:46:19;3.70;99.90
3626;DHT22;1827;50.534;8.316;2023-02-24T18:48:46;3.60;99.90